Time;durP1;ratioP1;P1;durP2;ratioP2;P2;SDS_P1;SDS_P2;PMS_P1;PMS_P2;Temp;Humidity;BMP_temperature;BMP_pressure;BME280_temperature;BME280_humidity;BME280_pressure;Samples;Min_cycle;Max_cycle;Signal;HPM_P1;HPM_P2
2022/09/07 00:01:07;;;;;;;6.57;5.15;;;23.10;91.00;;;;;;5025762;28;20631;-78
2022/09/07 00:03:34;;;;;;;9.02;5.07;;;23.10;90.90;;;;;;5023883;28;20026;-80
2022/09/07 00:06:05;;;;;;;6.70;5.00;;;23.00;90.80;;;;;;5031343;28;20701;-82
2022/09/07 00:08:31;;;;;;;5.05;4.50;;;23.00;90.80;;;;;;5028175;28;20029;-80
2022/09/07 00:11:00;;;;;;;7.28;4.68;;;23.00;91.10;;;;;;5033471;28;20068;-81
2022/09/07 00:13:29;;;;;;;7.50;4.70;;;23.00;90.80;;;;;;5031449;28;20057;-81
2022/09/07 00:15:55;;;;;;;7.40;5.35;;;23.00;90.90;;;;;;5038182;28;20022;-80
2022/09/07 00:18:21;;;;;;;7.18;5.03;;;22.90;90.90;;;;;;5025905;28;20037;-81
2022/09/07 00:21:06;;;;;;;6.68;5.15;;;22.90;91.00;;;;;;5025699;28;20117;-81
2022/09/07 00:23:34;;;;;;;10.35;4.72;;;22.90;91.10;;;;;;5023111;28;20041;-81
2022/09/07 00:26:10;;;;;;;7.38;4.78;;;22.90;91.10;;;;;;5025973;28;20108;-81
2022/09/07 00:28:37;;;;;;;8.02;4.63;;;22.90;91.10;;;;;;5028770;28;20044;-82
2022/09/07 00:31:03;;;;;;;6.13;4.63;;;22.90;91.20;;;;;;5034192;28;20055;-80
2022/09/07 00:33:29;;;;;;;4.50;3.90;;;22.90;91.20;;;;;;5028790;28;20030;-81
2022/09/07 00:35:57;;;;;;;5.10;3.92;;;22.90;91.20;;;;;;5035753;28;20026;-81
2022/09/07 00:38:23;;;;;;;4.85;3.95;;;22.90;91.30;;;;;;5020023;28;20029;-81
2022/09/07 00:40:49;;;;;;;4.32;3.75;;;22.90;91.30;;;;;;5020366;28;20429;-80
2022/09/07 00:43:29;;;;;;;7.30;4.00;;;22.80;91.20;;;;;;5029681;28;20041;-79
2022/09/07 00:45:54;;;;;;;4.90;4.03;;;22.80;91.20;;;;;;5026951;28;20041;-80
2022/09/07 00:48:25;;;;;;;7.88;4.13;;;22.90;91.20;;;;;;5032079;28;20108;-80
2022/09/07 00:50:59;;;;;;;4.32;3.38;;;22.90;91.70;;;;;;5023946;28;20086;-80
2022/09/07 00:53:29;;;;;;;7.50;3.35;;;22.90;91.80;;;;;;5023234;28;20501;-80
2022/09/07 00:55:56;;;;;;;4.07;3.53;;;22.90;91.90;;;;;;5024856;28;20034;-80
2022/09/07 00:58:23;;;;;;;5.65;4.10;;;22.90;91.60;;;;;;5028127;28;20501;-79
2022/09/07 01:00:50;;;;;;;5.03;3.83;;;22.80;91.40;;;;;;5032827;28;20056;-79
2022/09/07 01:03:21;;;;;;;8.60;4.30;;;22.80;91.40;;;;;;5028316;28;20026;-80
2022/09/07 01:06:02;;;;;;;4.40;3.50;;;22.80;91.50;;;;;;5025543;28;20021;-79
2022/09/07 01:08:29;;;;;;;4.68;3.13;;;22.80;91.70;;;;;;5026555;28;20103;-79
2022/09/07 01:10:57;;;;;;;4.40;3.08;;;22.80;91.60;;;;;;5024787;28;20451;-79
2022/09/07 01:13:23;;;;;;;5.57;3.97;;;22.80;92.00;;;;;;5028586;28;20029;-79
2022/09/07 01:16:30;;;;;;;8.82;3.90;;;22.80;92.20;;;;;;5020113;28;20026;-79
2022/09/07 01:18:59;;;;;;;7.75;3.65;;;22.80;91.80;;;;;;5028708;28;20440;-78
2022/09/07 01:21:58;;;;;;;4.55;3.20;;;22.70;91.60;;;;;;5043953;28;20029;-79
2022/09/07 01:24:51;;;;;;;4.32;3.42;;;22.70;91.90;;;;;;5030901;28;20029;-77
2022/09/07 01:27:48;;;;;;;3.55;3.13;;;22.70;91.80;;;;;;5021974;28;20057;-78
2022/09/07 01:30:16;;;;;;;5.63;3.47;;;22.70;92.00;;;;;;5023442;28;20032;-78
2022/09/07 01:32:51;;;;;;;5.28;3.53;;;22.70;91.70;;;;;;5021891;28;20037;-77
2022/09/07 01:35:42;;;;;;;5.75;3.75;;;22.70;91.80;;;;;;5017507;28;20021;-77
2022/09/07 01:38:31;;;;;;;4.32;3.15;;;22.70;91.80;;;;;;5022309;28;20052;-78
2022/09/07 01:41:10;;;;;;;4.40;3.58;;;22.70;91.90;;;;;;5023170;28;20029;-77
2022/09/07 01:43:59;;;;;;;5.22;3.33;;;22.60;91.70;;;;;;5019308;28;20022;-77
2022/09/07 01:46:41;;;;;;;5.25;3.97;;;22.60;91.70;;;;;;5041279;28;20456;-77
2022/09/07 01:49:36;;;;;;;4.22;3.08;;;22.60;91.70;;;;;;5019699;28;20060;-77
2022/09/07 01:52:08;;;;;;;5.32;2.90;;;22.60;91.70;;;;;;5021352;28;20060;-77
2022/09/07 01:54:45;;;;;;;2.97;2.65;;;22.60;91.90;;;;;;5021537;28;20406;-76
2022/09/07 01:57:19;;;;;;;7.68;3.83;;;22.60;91.90;;;;;;5023070;28;20064;-77
2022/09/07 01:59:55;;;;;;;4.72;3.50;;;22.60;91.90;;;;;;5027262;28;20139;-76
2022/09/07 02:02:28;;;;;;;5.95;3.60;;;22.60;92.00;;;;;;5020390;28;20036;-77
2022/09/07 02:05:09;;;;;;;4.75;3.42;;;22.60;92.00;;;;;;5022931;28;20109;-76
2022/09/07 02:07:42;;;;;;;6.82;3.10;;;22.60;92.10;;;;;;5012978;28;20032;-76
2022/09/07 02:10:17;;;;;;;;;;;22.60;92.30;;;;;;5024719;28;20030;-77
2022/09/07 02:12:43;;;;;;;6.10;3.58;;;22.60;92.10;;;;;;5024621;28;20032;-76
2022/09/07 02:15:15;;;;;;;5.07;2.67;;;22.60;92.00;;;;;;5024356;28;20112;-77
2022/09/07 02:17:51;;;;;;;4.20;3.03;;;22.50;92.00;;;;;;5037083;28;20026;-77
2022/09/07 02:20:23;;;;;;;4.38;3.47;;;22.50;92.00;;;;;;5028317;28;20029;-76
2022/09/07 02:22:57;;;;;;;3.65;2.97;;;22.50;92.10;;;;;;5024371;28;20036;-77
2022/09/07 02:25:31;;;;;;;6.45;3.65;;;22.50;92.10;;;;;;5022775;28;20029;-76
2022/09/07 02:28:28;;;;;;;4.25;3.58;;;22.50;92.20;;;;;;5024267;28;20033;-77
2022/09/07 02:30:54;;;;;;;3.92;3.53;;;22.50;92.10;;;;;;5013150;28;20022;-77
2022/09/07 02:33:20;;;;;;;5.65;3.35;;;22.50;92.10;;;;;;5024926;28;20091;-77
2022/09/07 02:35:46;;;;;;;4.30;3.25;;;22.50;92.10;;;;;;5019665;28;20017;-77
2022/09/07 02:38:14;;;;;;;5.97;3.25;;;22.50;92.10;;;;;;5028618;28;20050;-76
2022/09/07 02:40:39;;;;;;;5.10;3.42;;;22.50;92.40;;;;;;5016836;28;20052;-77
2022/09/07 02:43:07;;;;;;;4.05;3.65;;;22.50;92.20;;;;;;5021373;28;20025;-76
2022/09/07 02:46:07;;;;;;;5.05;3.85;;;22.50;92.10;;;;;;5021660;28;20378;-76
2022/09/07 02:48:45;;;;;;;4.45;3.00;;;22.50;92.10;;;;;;5022236;28;20542;-76
2022/09/07 02:51:21;;;;;;;4.45;3.08;;;22.40;92.20;;;;;;5022984;28;20091;-77
2022/09/07 02:53:52;;;;;;;4.40;3.42;;;22.40;92.20;;;;;;5038607;28;20032;-76
2022/09/07 02:56:39;;;;;;;8.00;3.28;;;22.40;92.20;;;;;;5024088;28;20030;-76
2022/09/07 02:59:44;;;;;;;3.90;3.50;;;22.40;92.20;;;;;;5020782;28;20493;-77
2022/09/07 03:02:33;;;;;;;3.75;2.83;;;22.40;92.20;;;;;;5028524;28;20084;-76
2022/09/07 03:05:28;;;;;;;4.47;3.30;;;22.40;92.20;;;;;;5024646;28;20124;-77
2022/09/07 03:07:58;;;;;;;;;;;22.40;92.20;;;;;;5026736;28;20034;-77
2022/09/07 03:10:24;;;;;;;3.33;2.80;;;22.40;92.30;;;;;;5045529;28;19909;-76
2022/09/07 03:12:50;;;;;;;2.97;2.67;;;22.40;92.30;;;;;;5029813;28;20548;-77
2022/09/07 03:15:22;;;;;;;3.55;2.92;;;22.40;92.30;;;;;;5023696;28;20049;-76
2022/09/07 03:17:48;;;;;;;5.50;2.83;;;22.40;92.40;;;;;;5023028;28;20268;-76
2022/09/07 03:20:15;;;;;;;3.97;2.83;;;22.40;92.30;;;;;;5020243;28;20033;-76
2022/09/07 03:22:43;;;;;;;3.80;3.10;;;22.30;92.20;;;;;;5027443;28;20033;-76
2022/09/07 03:25:09;;;;;;;2.78;2.47;;;22.30;92.20;;;;;;5027836;28;20021;-76
2022/09/07 03:27:36;;;;;;;5.07;2.70;;;22.30;92.30;;;;;;5027555;28;20022;-77
2022/09/07 03:30:06;;;;;;;3.42;2.88;;;22.30;92.40;;;;;;5027178;28;20124;-76
2022/09/07 03:32:34;;;;;;;8.40;3.50;;;22.30;92.30;;;;;;5018944;28;20025;-76
2022/09/07 03:35:01;;;;;;;5.30;2.90;;;22.30;92.30;;;;;;5021926;28;20116;-76
2022/09/07 03:37:28;;;;;;;2.80;2.50;;;22.30;92.30;;;;;;5031873;28;20028;-77
2022/09/07 03:39:54;;;;;;;5.18;2.45;;;22.30;92.30;;;;;;5023121;28;20116;-78
2022/09/07 03:42:20;;;;;;;2.90;2.22;;;22.20;92.30;;;;;;5024807;28;20037;-77
2022/09/07 03:44:48;;;;;;;3.83;2.30;;;22.30;92.40;;;;;;5017459;28;20030;-77
2022/09/07 03:47:14;;;;;;;3.40;2.58;;;22.30;92.40;;;;;;5028471;28;20059;-78
2022/09/07 03:49:40;;;;;;;3.10;2.42;;;22.30;92.40;;;;;;5025947;28;20066;-77
2022/09/07 03:52:06;;;;;;;3.42;2.38;;;22.30;92.40;;;;;;5023797;28;20104;-78
2022/09/07 03:54:32;;;;;;;3.55;2.95;;;22.30;92.40;;;;;;5028996;28;20052;-77
2022/09/07 03:56:57;;;;;;;3.20;2.13;;;22.30;92.40;;;;;;5023662;28;20022;-78
2022/09/07 03:59:23;;;;;;;2.40;2.20;;;22.20;92.40;;;;;;5027565;28;20029;-77
2022/09/07 04:01:49;;;;;;;3.38;2.75;;;22.20;92.40;;;;;;5008377;28;20070;-77
2022/09/07 04:04:15;;;;;;;3.88;2.67;;;22.20;92.40;;;;;;5023527;28;20048;-78
2022/09/07 04:06:41;;;;;;;2.17;1.83;;;22.20;92.40;;;;;;5028563;28;20055;-78
2022/09/07 04:09:11;;;;;;;2.58;1.90;;;22.20;92.40;;;;;;5029572;28;20022;-78
2022/09/07 04:11:39;;;;;;;2.30;1.98;;;22.20;92.50;;;;;;5024968;28;20076;-77
2022/09/07 04:14:05;;;;;;;6.10;2.42;;;22.20;92.40;;;;;;5022676;28;20025;-78
2022/09/07 04:16:32;;;;;;;2.92;2.00;;;22.20;92.50;;;;;;5027244;28;20113;-77
2022/09/07 04:18:58;;;;;;;5.10;2.15;;;22.20;92.50;;;;;;5021785;28;20029;-77
2022/09/07 04:21:25;;;;;;;2.35;1.88;;;22.20;92.50;;;;;;5022775;28;20108;-77
2022/09/07 04:23:52;;;;;;;2.10;1.77;;;22.20;92.50;;;;;;5025834;28;20025;-77
2022/09/07 04:26:23;;;;;;;5.22;1.80;;;22.20;92.60;;;;;;5029189;28;20517;-77
2022/09/07 04:28:49;;;;;;;2.33;2.13;;;22.20;92.60;;;;;;5023624;28;20036;-77
2022/09/07 04:31:17;;;;;;;2.60;2.00;;;22.20;92.60;;;;;;5028275;28;20022;-77
2022/09/07 04:33:44;;;;;;;1.95;1.70;;;22.10;92.60;;;;;;5026925;28;20026;-77
2022/09/07 04:36:10;;;;;;;2.30;1.77;;;22.10;92.60;;;;;;5027993;28;20485;-77
2022/09/07 04:38:38;;;;;;;6.65;2.40;;;22.10;92.60;;;;;;5028524;28;20083;-77
2022/09/07 04:41:18;;;;;;;4.10;2.20;;;22.10;92.60;;;;;;5029089;28;20075;-77
2022/09/07 04:43:45;;;;;;;2.15;1.60;;;22.10;92.60;;;;;;5038457;28;20395;-77
2022/09/07 04:46:21;;;;;;;3.65;1.75;;;22.10;92.60;;;;;;5025847;28;20045;-77
2022/09/07 04:48:52;;;;;;;1.85;1.70;;;22.10;92.60;;;;;;5022404;28;20031;-77
2022/09/07 04:51:19;;;;;;;2.95;1.60;;;22.10;92.60;;;;;;5024928;28;20033;-77
2022/09/07 04:53:48;;;;;;;3.13;1.70;;;22.00;92.60;;;;;;5025558;28;20013;-77
2022/09/07 04:56:15;;;;;;;1.60;1.50;;;22.10;92.60;;;;;;5042124;28;20795;-77
2022/09/07 04:58:41;;;;;;;2.45;1.83;;;22.10;92.60;;;;;;5024751;28;20512;-77
2022/09/07 05:01:07;;;;;;;2.83;2.00;;;22.10;92.70;;;;;;5025175;28;20053;-77
2022/09/07 05:03:35;;;;;;;2.20;1.70;;;22.00;92.70;;;;;;5022825;28;20040;-78
2022/09/07 05:06:06;;;;;;;2.15;1.95;;;22.00;92.70;;;;;;5028282;28;20053;-78
2022/09/07 05:08:42;;;;;;;1.50;1.40;;;22.00;92.70;;;;;;5031407;28;20026;-78
2022/09/07 05:11:09;;;;;;;2.25;1.75;;;22.00;92.80;;;;;;5018716;28;20022;-77
2022/09/07 05:13:35;;;;;;;1.80;1.63;;;22.00;92.80;;;;;;5024914;28;20045;-77
2022/09/07 05:16:12;;;;;;;3.33;1.60;;;22.00;92.80;;;;;;5030459;28;20021;-77
2022/09/07 05:18:38;;;;;;;2.08;1.88;;;22.00;92.80;;;;;;5025666;28;20029;-77
2022/09/07 05:21:08;;;;;;;2.28;1.88;;;22.00;92.80;;;;;;5031676;28;20029;-77
2022/09/07 05:23:34;;;;;;;2.10;1.50;;;22.00;92.80;;;;;;5023674;28;20113;-77
2022/09/07 05:26:00;;;;;;;3.55;2.10;;;22.00;92.80;;;;;;5028856;28;20022;-78
2022/09/07 05:28:26;;;;;;;3.22;1.70;;;22.00;92.80;;;;;;5024482;28;20466;-77
2022/09/07 05:30:52;;;;;;;4.15;1.50;;;22.00;92.80;;;;;;5024498;28;20518;-76
2022/09/07 05:33:18;;;;;;;2.97;1.70;;;22.00;92.80;;;;;;5021339;28;20107;-78
2022/09/07 05:35:43;;;;;;;7.63;1.90;;;22.00;92.90;;;;;;5023236;28;20026;-78
2022/09/07 05:38:09;;;;;;;1.83;1.70;;;22.00;92.90;;;;;;5025488;28;20030;-77
2022/09/07 05:40:35;;;;;;;2.88;1.85;;;21.90;92.90;;;;;;5024679;28;20029;-78
2022/09/07 05:43:01;;;;;;;3.05;1.92;;;21.90;92.90;;;;;;5027566;28;20493;-78
2022/09/07 05:45:26;;;;;;;6.53;1.77;;;21.90;92.90;;;;;;5026732;28;20097;-78
2022/09/07 05:47:54;;;;;;;2.10;1.52;;;21.90;92.90;;;;;;5029471;28;20072;-77
2022/09/07 05:50:20;;;;;;;4.20;1.50;;;21.90;92.80;;;;;;5023361;28;20432;-77
2022/09/07 05:52:47;;;;;;;2.85;1.40;;;21.90;92.90;;;;;;5022169;28;20053;-77
2022/09/07 05:55:13;;;;;;;1.90;1.70;;;21.90;92.90;;;;;;5022424;28;20108;-78
2022/09/07 05:57:38;;;;;;;1.85;1.70;;;21.90;92.90;;;;;;5017011;28;20149;-78
2022/09/07 06:00:05;;;;;;;2.83;1.63;;;21.90;92.90;;;;;;5021821;28;20084;-77
2022/09/07 06:02:31;;;;;;;2.20;1.42;;;21.90;92.90;;;;;;5030176;28;20099;-78
2022/09/07 06:04:56;;;;;;;3.60;1.65;;;21.90;93.00;;;;;;5025806;28;20025;-78
2022/09/07 06:07:22;;;;;;;2.13;1.50;;;21.90;93.00;;;;;;5027605;28;20026;-77
2022/09/07 06:09:48;;;;;;;2.13;1.70;;;21.90;93.00;;;;;;5021022;28;20482;-78
2022/09/07 06:12:14;;;;;;;1.65;1.55;;;21.90;93.00;;;;;;5019051;28;20084;-77
2022/09/07 06:14:40;;;;;;;1.92;1.73;;;21.80;93.00;;;;;;5020737;28;20033;-78
2022/09/07 06:17:05;;;;;;;3.45;1.60;;;21.80;93.00;;;;;;5030804;28;20425;-77
2022/09/07 06:19:31;;;;;;;4.00;1.50;;;21.80;93.00;;;;;;5021633;28;20486;-77
2022/09/07 06:21:57;;;;;;;2.08;1.73;;;21.80;93.10;;;;;;5024120;28;20026;-77
2022/09/07 06:24:23;;;;;;;3.47;1.50;;;21.80;93.10;;;;;;5025357;28;20067;-77
2022/09/07 06:26:48;;;;;;;2.00;1.60;;;21.80;93.20;;;;;;5024774;28;20506;-77
2022/09/07 06:29:14;;;;;;;3.05;1.50;;;21.80;93.20;;;;;;5031782;28;20022;-77
2022/09/07 06:31:40;;;;;;;1.55;1.42;;;21.80;93.10;;;;;;5030815;28;20106;-77
2022/09/07 06:34:06;;;;;;;2.05;1.75;;;21.80;93.20;;;;;;5027040;28;20080;-76
2022/09/07 06:36:32;;;;;;;2.45;1.83;;;21.80;93.20;;;;;;5027441;28;20033;-77
2022/09/07 06:39:00;;;;;;;3.58;1.63;;;21.80;93.20;;;;;;5025790;28;20114;-77
2022/09/07 06:41:27;;;;;;;2.70;2.05;;;21.80;93.20;;;;;;5031209;28;20199;-76
2022/09/07 06:43:54;;;;;;;1.88;1.63;;;21.80;93.20;;;;;;5029345;28;20091;-77
2022/09/07 06:46:21;;;;;;;2.97;2.10;;;21.80;93.30;;;;;;5024555;28;20163;-77
2022/09/07 06:48:51;;;;;;;2.67;1.95;;;21.80;93.30;;;;;;5025489;28;20022;-77
2022/09/07 06:51:19;;;;;;;3.17;2.05;;;21.80;93.30;;;;;;5017736;28;20045;-77
2022/09/07 06:53:46;;;;;;;4.78;2.35;;;21.70;93.20;;;;;;5029999;28;20022;-77
2022/09/07 06:56:15;;;;;;;2.50;1.75;;;21.80;93.30;;;;;;5029257;28;20037;-77
2022/09/07 06:58:42;;;;;;;2.30;2.10;;;21.70;93.30;;;;;;5022852;28;20037;-76
2022/09/07 07:01:15;;;;;;;3.00;2.10;;;21.70;93.30;;;;;;5019530;28;20025;-76
2022/09/07 07:03:42;;;;;;;2.53;2.10;;;21.70;93.30;;;;;;5025002;28;20025;-77
2022/09/07 07:06:08;;;;;;;2.75;2.30;;;21.70;93.30;;;;;;5021259;28;20457;-77
2022/09/07 07:08:34;;;;;;;3.03;2.10;;;21.70;93.40;;;;;;5023212;28;20021;-76
2022/09/07 07:11:05;;;;;;;2.78;2.25;;;21.70;93.40;;;;;;5027995;28;20371;-76
2022/09/07 07:13:32;;;;;;;3.67;2.67;;;21.70;93.40;;;;;;5028995;28;20033;-76
2022/09/07 07:16:09;;;;;;;3.63;2.10;;;21.70;93.40;;;;;;5026386;28;20057;-76
2022/09/07 07:18:35;;;;;;;2.70;2.20;;;21.70;93.40;;;;;;5028496;28;20445;-76
2022/09/07 07:21:06;;;;;;;3.50;2.45;;;21.70;93.40;;;;;;5045050;28;20021;-76
2022/09/07 07:23:35;;;;;;;5.65;2.58;;;21.70;93.50;;;;;;5027937;28;20021;-76
2022/09/07 07:26:07;;;;;;;3.35;2.42;;;21.70;93.40;;;;;;5031500;28;20079;-76
2022/09/07 07:28:33;;;;;;;2.53;1.98;;;21.70;93.40;;;;;;5030192;28;20025;-77
2022/09/07 07:31:00;;;;;;;3.42;1.90;;;21.70;93.40;;;;;;5019948;28;20403;-77
2022/09/07 07:33:31;;;;;;;5.25;2.47;;;21.70;93.40;;;;;;5026675;28;20037;-77
2022/09/07 07:36:15;;;;;;;3.17;2.40;;;21.70;93.40;;;;;;5022399;28;20116;-77
2022/09/07 07:38:43;;;;;;;4.30;2.75;;;21.70;93.40;;;;;;5037048;28;20041;-77
2022/09/07 07:41:10;;;;;;;3.47;2.50;;;21.70;93.40;;;;;;5024191;28;20087;-77
2022/09/07 07:43:36;;;;;;;2.35;1.80;;;21.70;93.40;;;;;;5021119;28;20442;-76
2022/09/07 07:46:02;;;;;;;3.25;2.35;;;21.70;93.40;;;;;;5022677;28;20049;-76
2022/09/07 07:48:28;;;;;;;4.43;2.35;;;21.70;93.40;;;;;;5026728;28;20021;-76
2022/09/07 07:51:06;;;;;;;2.67;2.20;;;21.70;93.40;;;;;;5020833;28;20513;-76
2022/09/07 07:53:35;;;;;;;5.10;2.35;;;21.70;93.40;;;;;;5020638;28;20034;-77
2022/09/07 07:56:05;;;;;;;5.90;2.60;;;21.70;93.40;;;;;;5021076;28;20034;-77
2022/09/07 07:58:32;;;;;;;4.72;2.58;;;21.70;93.50;;;;;;5027400;28;20120;-76
2022/09/07 08:01:05;;;;;;;3.33;2.42;;;21.70;93.50;;;;;;5026235;28;20052;-77
2022/09/07 08:03:34;;;;;;;3.80;2.70;;;21.70;93.60;;;;;;5007630;28;20590;-76
2022/09/07 08:06:08;;;;;;;3.92;2.25;;;21.70;93.60;;;;;;5018297;28;20626;-77
2022/09/07 08:08:35;;;;;;;3.80;2.60;;;21.70;93.60;;;;;;5026085;28;20053;-77
2022/09/07 08:11:06;;;;;;;4.63;2.75;;;21.70;93.50;;;;;;5028439;28;20022;-77
2022/09/07 08:13:33;;;;;;;5.68;2.80;;;21.70;93.50;;;;;;5021147;28;20079;-78
2022/09/07 08:15:59;;;;;;;5.40;2.80;;;21.70;93.50;;;;;;5024741;28;20041;-77
2022/09/07 08:18:25;;;;;;;5.90;2.95;;;21.70;93.60;;;;;;5028126;28;20022;-77
2022/09/07 08:20:51;;;;;;;3.15;2.83;;;21.70;93.60;;;;;;5031494;28;20104;-77
2022/09/07 08:23:19;;;;;;;3.42;2.40;;;21.70;93.70;;;;;;5030693;28;20538;-77
2022/09/07 08:25:52;;;;;;;4.68;2.83;;;21.70;93.60;;;;;;5026886;28;20426;-77
2022/09/07 08:28:19;;;;;;;4.68;2.47;;;21.70;93.60;;;;;;5025800;28;20033;-77
2022/09/07 08:30:45;;;;;;;6.22;3.47;;;21.70;93.60;;;;;;5045362;28;20022;-77
2022/09/07 08:33:10;;;;;;;5.85;3.17;;;21.70;93.60;;;;;;5030835;28;20056;-77
2022/09/07 08:35:36;;;;;;;3.88;2.75;;;21.60;93.60;;;;;;5030568;28;20029;-78
2022/09/07 08:38:02;;;;;;;4.57;2.80;;;21.60;93.60;;;;;;5028198;28;20025;-78
2022/09/07 08:40:29;;;;;;;4.10;2.58;;;21.70;93.70;;;;;;5044509;28;20482;-78
2022/09/07 08:43:11;;;;;;;5.13;3.25;;;21.70;93.70;;;;;;5025430;28;20029;-77
2022/09/07 08:45:49;;;;;;;5.50;2.65;;;21.70;93.80;;;;;;5020657;28;20048;-77
2022/09/07 08:48:19;;;;;;;4.57;3.00;;;21.70;93.70;;;;;;5027810;28;20112;-78
2022/09/07 08:50:59;;;;;;;4.45;2.78;;;21.70;93.60;;;;;;5026718;28;20387;-77
2022/09/07 08:53:25;;;;;;;4.05;3.35;;;21.60;93.70;;;;;;5040610;28;20032;-78
2022/09/07 08:55:57;;;;;;;5.88;3.15;;;21.60;93.70;;;;;;5028965;28;20033;-78
2022/09/07 08:58:42;;;;;;;5.05;3.38;;;21.60;93.70;;;;;;5035538;28;20108;-78
2022/09/07 09:01:12;;;;;;;4.18;3.00;;;21.60;93.70;;;;;;5032110;28;20406;-78
2022/09/07 09:03:39;;;;;;;4.22;2.92;;;21.60;93.70;;;;;;5008827;28;20115;-78
2022/09/07 09:06:35;;;;;;;3.80;3.05;;;21.60;93.70;;;;;;5029497;28;20045;-78
2022/09/07 09:09:35;;;;;;;4.18;2.72;;;21.60;93.80;;;;;;5023382;28;20033;-78
2022/09/07 09:12:51;;;;;;;4.10;3.38;;;21.60;93.80;;;;;;5021128;28;20037;-78
2022/09/07 09:16:10;;;;;;;5.00;3.47;;;21.60;93.80;;;;;;5022551;28;20044;-78
2022/09/07 09:18:49;;;;;;;4.03;3.03;;;21.60;93.80;;;;;;5008816;28;20427;-79
2022/09/07 09:21:17;;;;;;;5.07;3.83;;;21.60;93.70;;;;;;5020022;28;20041;-78
2022/09/07 09:23:47;;;;;;;3.33;3.03;;;21.60;93.80;;;;;;5021601;28;20029;-78
2022/09/07 09:26:32;;;;;;;4.47;3.58;;;21.60;93.70;;;;;;5027636;28;20418;-77
2022/09/07 09:29:12;;;;;;;3.80;2.95;;;21.60;93.70;;;;;;5025209;28;20018;-77
2022/09/07 09:31:38;;;;;;;4.25;2.85;;;21.60;93.80;;;;;;5027144;28;20382;-77
2022/09/07 09:34:04;;;;;;;4.63;3.58;;;21.60;93.70;;;;;;5017315;28;20022;-77
2022/09/07 09:36:33;;;;;;;3.08;2.47;;;21.60;93.70;;;;;;5024320;28;20064;-77
2022/09/07 09:39:00;;;;;;;3.38;2.78;;;21.60;93.70;;;;;;5037819;28;20053;-77
2022/09/07 09:41:35;;;;;;;4.28;3.40;;;21.60;93.70;;;;;;5022450;28;20117;-76
2022/09/07 09:44:05;;;;;;;3.88;2.75;;;21.60;93.80;;;;;;5027310;28;20087;-79
2022/09/07 09:46:36;;;;;;;4.63;3.35;;;21.60;93.70;;;;;;5016566;28;20030;-76
2022/09/07 09:49:16;;;;;;;4.45;3.45;;;21.70;96.10;;;;;;5021945;28;20024;-76
2022/09/07 09:51:46;;;;;;;5.15;3.38;;;21.70;94.70;;;;;;5022704;28;20014;-76
2022/09/07 09:54:21;;;;;;;5.20;3.15;;;21.70;94.20;;;;;;5022487;28;20036;-76
2022/09/07 09:56:48;;;;;;;5.63;3.20;;;21.70;94.40;;;;;;5021067;28;20036;-76
2022/09/07 09:59:17;;;;;;;4.18;3.38;;;21.70;94.00;;;;;;5018439;28;20025;-77
2022/09/07 10:01:45;;;;;;;4.43;3.30;;;21.60;94.00;;;;;;5021328;28;20020;-76
2022/09/07 10:04:23;;;;;;;4.10;3.53;;;21.70;93.90;;;;;;5001535;28;20096;-76
2022/09/07 10:06:59;;;;;;;3.63;3.08;;;21.60;93.90;;;;;;5017797;28;20018;-77
2022/09/07 10:09:32;;;;;;;5.93;3.65;;;21.60;93.90;;;;;;5022446;28;20057;-76
2022/09/07 10:12:00;;;;;;;5.20;3.53;;;21.60;94.00;;;;;;5029631;28;20024;-76
2022/09/07 10:14:40;;;;;;;6.35;3.45;;;21.60;93.90;;;;;;5019973;28;20034;-77
2022/09/07 10:17:31;;;;;;;4.90;2.80;;;21.60;93.90;;;;;;5022993;28;20113;-77
2022/09/07 10:20:19;;;;;;;5.05;3.47;;;21.60;93.90;;;;;;5021663;28;20080;-77
2022/09/07 10:23:05;;;;;;;7.13;3.30;;;21.60;93.90;;;;;;5021438;28;20029;-76
2022/09/07 10:25:38;;;;;;;4.18;3.20;;;21.60;94.00;;;;;;5019026;28;20109;-77
2022/09/07 10:28:04;;;;;;;7.68;3.10;;;21.60;94.00;;;;;;5016196;28;20017;-79
2022/09/07 10:30:40;;;;;;;8.38;2.50;;;21.70;96.40;;;;;;5027527;28;20030;-79
2022/09/07 10:33:15;;;;;;;4.05;2.70;;;21.90;97.10;;;;;;5035092;28;20029;-80
2022/09/07 10:36:21;;;;;;;3.67;2.35;;;22.00;96.50;;;;;;5029496;28;20136;-80
2022/09/07 10:38:55;;;;;;;4.32;2.13;;;22.10;97.50;;;;;;5027316;28;20036;-82
2022/09/07 10:41:36;;;;;;;4.10;2.15;;;22.20;96.60;;;;;;5030725;28;20030;-81
2022/09/07 10:44:04;;;;;;;3.58;2.35;;;22.20;96.80;;;;;;5026297;28;20030;-87
2022/09/07 10:47:08;;;;;;;6.13;2.28;;;22.40;97.30;;;;;;5025602;28;20025;-77
2022/09/07 10:50:04;;;;;;;6.10;2.05;;;22.70;97.00;;;;;;5025476;28;20026;-77
2022/09/07 10:52:51;;;;;;;2.60;1.65;;;22.90;96.50;;;;;;5029395;28;20037;-77
2022/09/07 10:55:25;;;;;;;2.35;1.55;;;23.20;96.20;;;;;;5020948;28;20029;-77
2022/09/07 10:58:15;;;;;;;3.00;1.85;;;23.40;95.70;;;;;;5025982;28;20091;-78
2022/09/07 11:01:06;;;;;;;3.15;1.63;;;23.50;95.40;;;;;;5042175;28;20040;-77
2022/09/07 11:03:35;;;;;;;1.60;1.40;;;23.70;95.30;;;;;;5000169;28;20053;-77
2022/09/07 11:06:23;;;;;;;1.80;1.52;;;23.70;95.00;;;;;;5020131;28;20367;-77
2022/09/07 11:09:08;;;;;;;5.22;2.47;;;23.80;94.80;;;;;;5039237;28;20375;-78
2022/09/07 11:11:46;;;;;;;4.28;1.80;;;23.90;94.70;;;;;;5019860;28;20052;-76
2022/09/07 11:14:19;;;;;;;1.75;1.40;;;23.90;94.60;;;;;;5022164;28;20037;-77
2022/09/07 11:16:57;;;;;;;5.07;1.85;;;23.90;94.50;;;;;;5025003;28;20037;-77
2022/09/07 11:19:56;;;;;;;2.58;1.60;;;23.90;94.40;;;;;;5027451;28;20029;-77
2022/09/07 11:22:35;;;;;;;1.90;1.52;;;23.90;94.30;;;;;;5026439;28;20045;-77
2022/09/07 11:25:00;;;;;;;2.25;1.60;;;23.90;94.60;;;;;;5024916;28;20029;-77
2022/09/07 11:27:58;;;;;;;6.38;1.90;;;23.90;94.20;;;;;;5025169;28;20022;-77
2022/09/07 11:30:31;;;;;;;2.58;1.67;;;23.90;94.30;;;;;;5027135;28;20053;-77
2022/09/07 11:33:01;;;;;;;4.78;2.65;;;23.90;94.30;;;;;;5020225;28;20076;-77
2022/09/07 11:36:01;;;;;;;3.28;2.80;;;23.90;94.40;;;;;;5025913;28;20040;-77
2022/09/07 11:38:47;;;;;;;4.70;2.28;;;23.90;94.60;;;;;;5022913;28;20037;-76
2022/09/07 11:41:27;;;;;;;7.88;2.78;;;23.90;94.30;;;;;;5021144;28;20038;-76
2022/09/07 11:44:04;;;;;;;4.00;2.17;;;23.90;94.30;;;;;;5025850;28;20036;-76
2022/09/07 11:46:50;;;;;;;4.60;1.98;;;23.80;94.10;;;;;;5027595;28;20096;-76
2022/09/07 11:49:27;;;;;;;3.75;2.28;;;23.80;94.10;;;;;;5023291;28;20849;-76
2022/09/07 11:52:00;;;;;;;2.60;2.30;;;23.80;93.90;;;;;;5021983;28;20053;-76
2022/09/07 11:55:07;;;;;;;3.53;2.38;;;23.80;93.90;;;;;;5025608;28;20107;-76
2022/09/07 11:57:54;;;;;;;4.10;2.50;;;23.80;93.90;;;;;;5008727;28;20741;-77
2022/09/07 12:00:25;;;;;;;2.72;2.05;;;23.80;93.90;;;;;;5021979;28;20033;-77
2022/09/07 12:03:20;;;;;;;2.88;2.25;;;23.80;94.10;;;;;;5022912;28;20175;-77
2022/09/07 12:06:03;;;;;;;2.45;1.90;;;23.80;94.10;;;;;;5016441;28;20108;-77
2022/09/07 12:08:41;;;;;;;4.78;2.60;;;23.70;94.00;;;;;;5038663;28;20040;-77
2022/09/07 12:11:36;;;;;;;4.38;2.20;;;23.70;94.00;;;;;;5019203;28;20038;-78
2022/09/07 12:14:25;;;;;;;2.67;2.03;;;23.70;94.00;;;;;;5039726;28;20026;-77
2022/09/07 12:17:07;;;;;;;2.67;2.13;;;23.70;94.00;;;;;;5023506;28;20041;-77
2022/09/07 12:19:33;;;;;;;3.97;2.38;;;23.70;94.10;;;;;;5024300;28;20080;-77
2022/09/07 12:21:59;;;;;;;3.45;2.35;;;23.70;94.00;;;;;;5030484;28;20025;-77
2022/09/07 12:24:37;;;;;;;3.83;2.08;;;23.70;94.00;;;;;;5023163;28;20386;-78
2022/09/07 12:27:21;;;;;;;3.75;2.20;;;23.70;94.00;;;;;;5042874;28;20024;-77
2022/09/07 12:29:48;;;;;;;2.80;2.28;;;23.60;94.00;;;;;;5031904;28;20037;-77
2022/09/07 12:32:40;;;;;;;2.13;1.73;;;23.60;94.00;;;;;;5028427;28;20029;-77
2022/09/07 12:35:28;;;;;;;5.68;1.88;;;23.60;94.00;;;;;;5032524;28;20045;-77
2022/09/07 12:37:56;;;;;;;2.30;1.40;;;23.60;93.90;;;;;;5038405;28;20108;-77
2022/09/07 12:43:12;;;;;;;3.67;1.40;;;23.60;91.90;;;;;;5026345;28;20029;-77
2022/09/07 12:45:37;;;;;;;3.00;2.45;;;23.60;92.50;;;;;;5023232;28;20014;-77
2022/09/07 12:48:40;;;;;;;3.90;2.17;;;23.60;92.80;;;;;;5026439;28;20018;-77
2022/09/07 12:51:51;;;;;;;4.30;1.83;;;23.60;92.80;;;;;;5018632;28;20029;-77
2022/09/07 12:54:54;;;;;;;4.15;1.70;;;23.60;92.90;;;;;;4968937;28;20034;-77
2022/09/07 12:57:57;;;;;;;4.28;2.10;;;23.60;92.50;;;;;;4988872;28;20061;-77
2022/09/07 13:00:48;;;;;;;5.93;1.87;;;23.60;92.60;;;;;;5029126;28;20499;-77
2022/09/07 13:03:33;;;;;;;3.03;1.92;;;23.60;92.80;;;;;;5027114;28;20025;-77
2022/09/07 13:06:09;;;;;;;6.47;1.80;;;23.60;92.80;;;;;;5027865;28;20033;-77
2022/09/07 13:08:54;;;;;;;8.07;2.00;;;23.50;92.50;;;;;;5020721;28;20017;-76
2022/09/07 13:11:20;;;;;;;3.97;1.63;;;23.50;91.70;;;;;;5025681;28;20034;-77
2022/09/07 13:14:15;;;;;;;4.30;1.80;;;23.40;91.80;;;;;;5028583;28;20055;-77
2022/09/07 13:16:43;;;;;;;2.28;1.73;;;23.40;92.30;;;;;;5013740;28;20029;-77
2022/09/07 13:19:33;;;;;;;3.55;2.15;;;23.20;92.40;;;;;;5026875;28;20041;-77
2022/09/07 13:21:59;;;;;;;3.25;1.80;;;23.30;92.60;;;;;;5004496;28;20041;-77
2022/09/07 13:24:55;;;;;;;4.95;1.85;;;23.30;92.80;;;;;;5029797;28;20033;-77